sensor_id;sensor_type;location;lat;lon;timestamp;P1;durP1;ratioP1;P2;durP2;ratioP2
22752;SDS011;11543;43.144;24.684;2022-09-20T00:00:01;1.55;;;0.30;;
22752;SDS011;11543;43.144;24.684;2022-09-20T00:02:29;0.30;;;0.20;;
22752;SDS011;11543;43.144;24.684;2022-09-20T00:04:54;0.30;;;0.22;;
22752;SDS011;11543;43.144;24.684;2022-09-20T00:07:20;1.70;;;0.30;;
22752;SDS011;11543;43.144;24.684;2022-09-20T00:09:45;0.40;;;0.30;;
22752;SDS011;11543;43.144;24.684;2022-09-20T00:12:11;0.47;;;0.20;;
22752;SDS011;11543;43.144;24.684;2022-09-20T00:14:36;0.35;;;0.20;;
22752;SDS011;11543;43.144;24.684;2022-09-20T00:17:02;0.70;;;0.30;;
22752;SDS011;11543;43.144;24.684;2022-09-20T00:19:27;0.40;;;0.30;;
22752;SDS011;11543;43.144;24.684;2022-09-20T00:21:52;2.35;;;0.40;;
22752;SDS011;11543;43.144;24.684;2022-09-20T00:24:18;0.50;;;0.40;;
22752;SDS011;11543;43.144;24.684;2022-09-20T00:26:44;1.00;;;0.50;;
22752;SDS011;11543;43.144;24.684;2022-09-20T00:29:09;0.98;;;0.35;;
22752;SDS011;11543;43.144;24.684;2022-09-20T00:31:36;0.95;;;0.45;;
22752;SDS011;11543;43.144;24.684;2022-09-20T00:34:04;1.38;;;0.50;;
22752;SDS011;11543;43.144;24.684;2022-09-20T00:36:48;0.65;;;0.45;;
22752;SDS011;11543;43.144;24.684;2022-09-20T00:39:14;0.55;;;0.50;;
22752;SDS011;11543;43.144;24.684;2022-09-20T00:41:40;0.52;;;0.50;;
22752;SDS011;11543;43.144;24.684;2022-09-20T00:50:03;0.60;;;0.50;;
22752;SDS011;11543;43.144;24.684;2022-09-20T00:52:33;1.77;;;0.80;;
22752;SDS011;11543;43.144;24.684;2022-09-20T00:55:01;0.93;;;0.82;;
22752;SDS011;11543;43.144;24.684;2022-09-20T00:57:31;1.08;;;0.82;;
22752;SDS011;11543;43.144;24.684;2022-09-20T00:59:59;0.95;;;0.80;;
22752;SDS011;11543;43.144;24.684;2022-09-20T01:02:29;0.80;;;0.80;;
22752;SDS011;11543;43.144;24.684;2022-09-20T01:04:59;2.45;;;0.85;;
22752;SDS011;11543;43.144;24.684;2022-09-20T01:07:24;0.95;;;0.80;;
22752;SDS011;11543;43.144;24.684;2022-09-20T01:09:50;1.00;;;0.80;;
22752;SDS011;11543;43.144;24.684;2022-09-20T01:12:20;1.25;;;0.80;;
22752;SDS011;11543;43.144;24.684;2022-09-20T01:14:50;2.30;;;0.93;;
22752;SDS011;11543;43.144;24.684;2022-09-20T01:17:16;1.17;;;1.00;;
22752;SDS011;11543;43.144;24.684;2022-09-20T01:25:17;1.08;;;0.90;;
22752;SDS011;11543;43.144;24.684;2022-09-20T01:28:04;1.13;;;1.02;;
22752;SDS011;11543;43.144;24.684;2022-09-20T01:30:32;1.25;;;1.02;;
22752;SDS011;11543;43.144;24.684;2022-09-20T01:33:12;1.20;;;0.95;;
22752;SDS011;11543;43.144;24.684;2022-09-20T01:35:52;0.95;;;0.80;;
22752;SDS011;11543;43.144;24.684;2022-09-20T01:41:05;1.30;;;1.10;;
22752;SDS011;11543;43.144;24.684;2022-09-20T01:44:29;1.10;;;0.80;;
22752;SDS011;11543;43.144;24.684;2022-09-20T01:47:00;2.25;;;0.90;;
22752;SDS011;11543;43.144;24.684;2022-09-20T02:12:48;1.13;;;0.90;;
22752;SDS011;11543;43.144;24.684;2022-09-20T02:20:57;1.80;;;1.00;;
22752;SDS011;11543;43.144;24.684;2022-09-20T02:26:06;1.23;;;0.90;;
22752;SDS011;11543;43.144;24.684;2022-09-20T02:28:49;1.65;;;1.13;;
22752;SDS011;11543;43.144;24.684;2022-09-20T02:31:26;1.25;;;1.00;;
22752;SDS011;11543;43.144;24.684;2022-09-20T02:47:37;1.25;;;1.00;;
22752;SDS011;11543;43.144;24.684;2022-09-20T02:52:55;1.55;;;1.00;;
22752;SDS011;11543;43.144;24.684;2022-09-20T02:58:56;1.10;;;0.90;;
22752;SDS011;11543;43.144;24.684;2022-09-20T03:01:44;1.60;;;1.17;;
22752;SDS011;11543;43.144;24.684;2022-09-20T03:05:04;5.03;;;1.20;;
22752;SDS011;11543;43.144;24.684;2022-09-20T03:10:10;2.22;;;1.00;;
22752;SDS011;11543;43.144;24.684;2022-09-20T03:15:51;1.70;;;1.00;;
22752;SDS011;11543;43.144;24.684;2022-09-20T03:24:28;1.95;;;1.15;;
22752;SDS011;11543;43.144;24.684;2022-09-20T03:33:03;3.05;;;1.08;;
22752;SDS011;11543;43.144;24.684;2022-09-20T03:41:41;2.90;;;1.30;;
22752;SDS011;11543;43.144;24.684;2022-09-20T03:44:25;1.42;;;0.93;;
22752;SDS011;11543;43.144;24.684;2022-09-20T03:46:56;2.35;;;1.13;;
22752;SDS011;11543;43.144;24.684;2022-09-20T04:00:47;1.20;;;1.00;;
22752;SDS011;11543;43.144;24.684;2022-09-20T04:03:23;3.08;;;1.20;;
22752;SDS011;11543;43.144;24.684;2022-09-20T04:18:49;1.58;;;1.30;;
22752;SDS011;11543;43.144;24.684;2022-09-20T04:22:00;1.30;;;1.20;;
22752;SDS011;11543;43.144;24.684;2022-09-20T04:24:44;1.20;;;1.10;;
22752;SDS011;11543;43.144;24.684;2022-09-20T04:32:41;1.20;;;0.90;;
22752;SDS011;11543;43.144;24.684;2022-09-20T04:38:11;0.93;;;0.90;;
22752;SDS011;11543;43.144;24.684;2022-09-20T05:19:19;2.05;;;1.02;;
22752;SDS011;11543;43.144;24.684;2022-09-20T05:22:07;1.40;;;1.17;;
22752;SDS011;11543;43.144;24.684;2022-09-20T05:27:52;1.08;;;0.90;;
22752;SDS011;11543;43.144;24.684;2022-09-20T05:35:42;3.08;;;0.90;;
22752;SDS011;11543;43.144;24.684;2022-09-20T05:38:26;1.88;;;0.98;;
22752;SDS011;11543;43.144;24.684;2022-09-20T05:54:55;1.48;;;0.75;;
22752;SDS011;11543;43.144;24.684;2022-09-20T05:57:36;0.95;;;0.70;;
22752;SDS011;11543;43.144;24.684;2022-09-20T06:00:13;1.67;;;0.70;;
22752;SDS011;11543;43.144;24.684;2022-09-20T06:19:47;0.80;;;0.63;;
22752;SDS011;11543;43.144;24.684;2022-09-20T06:34:44;0.47;;;0.40;;
22752;SDS011;11543;43.144;24.684;2022-09-20T06:40:12;0.50;;;0.50;;
22752;SDS011;11543;43.144;24.684;2022-09-20T06:43:15;0.68;;;0.30;;
22752;SDS011;11543;43.144;24.684;2022-09-20T06:45:41;0.65;;;0.52;;
22752;SDS011;11543;43.144;24.684;2022-09-20T06:48:07;1.13;;;0.60;;
22752;SDS011;11543;43.144;24.684;2022-09-20T06:50:39;1.35;;;0.57;;
22752;SDS011;11543;43.144;24.684;2022-09-20T06:53:07;0.43;;;0.43;;
22752;SDS011;11543;43.144;24.684;2022-09-20T06:55:35;1.27;;;0.50;;
22752;SDS011;11543;43.144;24.684;2022-09-20T06:58:04;0.65;;;0.50;;
22752;SDS011;11543;43.144;24.684;2022-09-20T07:00:30;0.55;;;0.40;;
22752;SDS011;11543;43.144;24.684;2022-09-20T07:02:55;0.70;;;0.50;;
22752;SDS011;11543;43.144;24.684;2022-09-20T07:05:21;0.52;;;0.40;;
22752;SDS011;11543;43.144;24.684;2022-09-20T07:07:47;0.65;;;0.50;;
22752;SDS011;11543;43.144;24.684;2022-09-20T07:10:13;1.20;;;0.55;;
22752;SDS011;11543;43.144;24.684;2022-09-20T07:12:39;0.60;;;0.40;;
22752;SDS011;11543;43.144;24.684;2022-09-20T07:15:05;0.68;;;0.40;;
22752;SDS011;11543;43.144;24.684;2022-09-20T07:17:31;0.50;;;0.20;;
22752;SDS011;11543;43.144;24.684;2022-09-20T07:19:58;0.75;;;0.30;;
22752;SDS011;11543;43.144;24.684;2022-09-20T07:22:24;1.17;;;0.30;;
22752;SDS011;11543;43.144;24.684;2022-09-20T07:24:50;2.55;;;0.30;;
22752;SDS011;11543;43.144;24.684;2022-09-20T07:27:15;0.90;;;0.25;;
22752;SDS011;11543;43.144;24.684;2022-09-20T07:29:40;0.65;;;0.32;;
22752;SDS011;11543;43.144;24.684;2022-09-20T07:32:06;0.20;;;0.20;;
22752;SDS011;11543;43.144;24.684;2022-09-20T07:34:32;2.17;;;0.30;;
22752;SDS011;11543;43.144;24.684;2022-09-20T07:36:58;0.35;;;0.20;;
22752;SDS011;11543;43.144;24.684;2022-09-20T07:39:28;0.90;;;0.30;;
22752;SDS011;11543;43.144;24.684;2022-09-20T07:41:53;1.58;;;0.30;;
22752;SDS011;11543;43.144;24.684;2022-09-20T07:44:19;1.17;;;0.30;;
22752;SDS011;11543;43.144;24.684;2022-09-20T07:46:49;0.73;;;0.30;;
22752;SDS011;11543;43.144;24.684;2022-09-20T07:49:19;0.73;;;0.30;;
22752;SDS011;11543;43.144;24.684;2022-09-20T07:51:46;0.63;;;0.22;;
22752;SDS011;11543;43.144;24.684;2022-09-20T07:54:12;1.27;;;0.22;;
22752;SDS011;11543;43.144;24.684;2022-09-20T07:56:38;1.25;;;0.30;;
22752;SDS011;11543;43.144;24.684;2022-09-20T07:59:03;1.55;;;0.32;;
22752;SDS011;11543;43.144;24.684;2022-09-20T08:01:29;0.32;;;0.30;;
22752;SDS011;11543;43.144;24.684;2022-09-20T08:03:55;2.05;;;0.40;;
22752;SDS011;11543;43.144;24.684;2022-09-20T08:06:21;0.30;;;0.30;;
22752;SDS011;11543;43.144;24.684;2022-09-20T08:08:47;0.60;;;0.25;;
22752;SDS011;11543;43.144;24.684;2022-09-20T08:11:23;0.63;;;0.30;;
22752;SDS011;11543;43.144;24.684;2022-09-20T08:13:54;0.50;;;0.30;;
22752;SDS011;11543;43.144;24.684;2022-09-20T08:16:21;0.60;;;0.30;;
22752;SDS011;11543;43.144;24.684;2022-09-20T08:18:47;2.63;;;0.30;;
22752;SDS011;11543;43.144;24.684;2022-09-20T08:21:15;0.88;;;0.30;;
22752;SDS011;11543;43.144;24.684;2022-09-20T08:23:41;0.77;;;0.32;;
22752;SDS011;11543;43.144;24.684;2022-09-20T08:26:09;0.75;;;0.30;;
22752;SDS011;11543;43.144;24.684;2022-09-20T08:28:37;0.57;;;0.40;;
22752;SDS011;11543;43.144;24.684;2022-09-20T08:31:07;1.08;;;0.40;;
22752;SDS011;11543;43.144;24.684;2022-09-20T08:33:36;0.80;;;0.40;;
22752;SDS011;11543;43.144;24.684;2022-09-20T08:36:02;1.63;;;0.30;;
22752;SDS011;11543;43.144;24.684;2022-09-20T08:38:30;1.58;;;0.30;;
22752;SDS011;11543;43.144;24.684;2022-09-20T08:40:56;1.40;;;0.30;;
22752;SDS011;11543;43.144;24.684;2022-09-20T08:43:27;0.30;;;0.20;;
22752;SDS011;11543;43.144;24.684;2022-09-20T08:45:57;0.57;;;0.20;;
22752;SDS011;11543;43.144;24.684;2022-09-20T08:48:29;0.25;;;0.20;;
22752;SDS011;11543;43.144;24.684;2022-09-20T08:50:58;1.00;;;0.30;;
22752;SDS011;11543;43.144;24.684;2022-09-20T08:53:25;1.65;;;0.30;;
22752;SDS011;11543;43.144;24.684;2022-09-20T08:55:55;6.63;;;0.28;;
22752;SDS011;11543;43.144;24.684;2022-09-20T08:58:24;0.73;;;0.20;;
22752;SDS011;11543;43.144;24.684;2022-09-20T09:00:51;2.22;;;0.30;;
22752;SDS011;11543;43.144;24.684;2022-09-20T09:03:20;0.50;;;0.28;;
22752;SDS011;11543;43.144;24.684;2022-09-20T09:05:46;0.43;;;0.20;;
22752;SDS011;11543;43.144;24.684;2022-09-20T09:08:16;0.57;;;0.20;;
22752;SDS011;11543;43.144;24.684;2022-09-20T09:10:55;0.20;;;0.20;;
22752;SDS011;11543;43.144;24.684;2022-09-20T09:13:31;0.30;;;0.20;;
22752;SDS011;11543;43.144;24.684;2022-09-20T09:16:05;0.88;;;0.22;;
22752;SDS011;11543;43.144;24.684;2022-09-20T09:18:36;1.65;;;0.20;;
22752;SDS011;11543;43.144;24.684;2022-09-20T09:21:05;0.80;;;0.30;;
22752;SDS011;11543;43.144;24.684;2022-09-20T09:23:42;2.30;;;0.20;;
22752;SDS011;11543;43.144;24.684;2022-09-20T09:26:21;0.40;;;0.20;;
22752;SDS011;11543;43.144;24.684;2022-09-20T09:29:33;0.35;;;0.20;;
22752;SDS011;11543;43.144;24.684;2022-09-20T09:31:45;1.35;;;0.20;;
22752;SDS011;11543;43.144;24.684;2022-09-20T09:36:47;0.52;;;0.20;;
22752;SDS011;11543;43.144;24.684;2022-09-20T09:39:14;1.55;;;0.20;;
22752;SDS011;11543;43.144;24.684;2022-09-20T09:41:45;0.30;;;0.20;;
22752;SDS011;11543;43.144;24.684;2022-09-20T09:44:24;0.30;;;0.20;;
22752;SDS011;11543;43.144;24.684;2022-09-20T09:46:51;0.70;;;0.20;;
22752;SDS011;11543;43.144;24.684;2022-09-20T09:54:19;0.45;;;0.20;;
22752;SDS011;11543;43.144;24.684;2022-09-20T09:59:44;0.15;;;0.15;;
22752;SDS011;11543;43.144;24.684;2022-09-20T10:02:41;0.17;;;0.15;;
22752;SDS011;11543;43.144;24.684;2022-09-20T10:22:41;0.50;;;0.20;;
22752;SDS011;11543;43.144;24.684;2022-09-20T10:30:10;0.10;;;0.10;;
22752;SDS011;11543;43.144;24.684;2022-09-20T10:32:46;0.40;;;0.20;;
22752;SDS011;11543;43.144;24.684;2022-09-20T10:55:02;0.20;;;0.20;;
22752;SDS011;11543;43.144;24.684;2022-09-20T11:00:42;0.10;;;0.10;;
22752;SDS011;11543;43.144;24.684;2022-09-20T11:08:57;0.20;;;0.10;;
22752;SDS011;11543;43.144;24.684;2022-09-20T11:11:30;0.95;;;0.20;;
22752;SDS011;11543;43.144;24.684;2022-09-20T11:16:56;1.38;;;0.30;;
22752;SDS011;11543;43.144;24.684;2022-09-20T11:19:52;0.50;;;0.30;;
22752;SDS011;11543;43.144;24.684;2022-09-20T11:22:22;1.27;;;0.30;;
22752;SDS011;11543;43.144;24.684;2022-09-20T11:25:11;0.52;;;0.20;;
22752;SDS011;11543;43.144;24.684;2022-09-20T11:27:45;1.85;;;0.20;;
22752;SDS011;11543;43.144;24.684;2022-09-20T11:51:07;0.40;;;0.20;;
22752;SDS011;11543;43.144;24.684;2022-09-20T11:58:53;0.40;;;0.10;;
22752;SDS011;11543;43.144;24.684;2022-09-20T12:01:30;0.20;;;0.10;;
22752;SDS011;11543;43.144;24.684;2022-09-20T12:03:59;2.17;;;0.20;;
22752;SDS011;11543;43.144;24.684;2022-09-20T12:06:30;2.00;;;0.15;;
22752;SDS011;11543;43.144;24.684;2022-09-20T12:09:02;0.35;;;0.10;;
22752;SDS011;11543;43.144;24.684;2022-09-20T12:11:31;1.88;;;0.15;;
22752;SDS011;11543;43.144;24.684;2022-09-20T12:16:41;0.63;;;0.20;;
22752;SDS011;11543;43.144;24.684;2022-09-20T12:24:28;0.20;;;0.10;;
22752;SDS011;11543;43.144;24.684;2022-09-20T12:27:21;0.13;;;0.10;;
22752;SDS011;11543;43.144;24.684;2022-09-20T12:30:13;2.42;;;0.20;;
22752;SDS011;11543;43.144;24.684;2022-09-20T12:32:43;1.33;;;0.20;;
22752;SDS011;11543;43.144;24.684;2022-09-20T12:36:11;0.63;;;0.20;;
22752;SDS011;11543;43.144;24.684;2022-09-20T12:41:01;0.20;;;0.20;;
22752;SDS011;11543;43.144;24.684;2022-09-20T12:43:27;1.02;;;0.17;;
22752;SDS011;11543;43.144;24.684;2022-09-20T12:45:55;0.93;;;0.40;;
22752;SDS011;11543;43.144;24.684;2022-09-20T12:48:21;0.60;;;0.20;;
22752;SDS011;11543;43.144;24.684;2022-09-20T12:51:00;1.38;;;0.20;;
22752;SDS011;11543;43.144;24.684;2022-09-20T12:54:13;1.50;;;0.20;;
22752;SDS011;11543;43.144;24.684;2022-09-20T12:56:40;0.40;;;0.20;;
22752;SDS011;11543;43.144;24.684;2022-09-20T12:59:28;1.13;;;0.30;;
22752;SDS011;11543;43.144;24.684;2022-09-20T13:01:55;0.30;;;0.20;;
22752;SDS011;11543;43.144;24.684;2022-09-20T13:10:23;2.65;;;0.20;;
22752;SDS011;11543;43.144;24.684;2022-09-20T13:12:55;1.58;;;0.20;;
22752;SDS011;11543;43.144;24.684;2022-09-20T13:15:24;0.88;;;0.20;;
22752;SDS011;11543;43.144;24.684;2022-09-20T13:17:51;0.50;;;0.22;;
22752;SDS011;11543;43.144;24.684;2022-09-20T13:20:21;0.30;;;0.20;;
22752;SDS011;11543;43.144;24.684;2022-09-20T13:22:49;0.25;;;0.22;;
22752;SDS011;11543;43.144;24.684;2022-09-20T13:25:17;0.30;;;0.20;;
22752;SDS011;11543;43.144;24.684;2022-09-20T13:27:50;1.65;;;0.22;;
22752;SDS011;11543;43.144;24.684;2022-09-20T13:30:25;7.63;;;2.25;;
22752;SDS011;11543;43.144;24.684;2022-09-20T13:32:56;16.15;;;4.63;;
22752;SDS011;11543;43.144;24.684;2022-09-20T13:35:45;20.23;;;7.68;;
22752;SDS011;11543;43.144;24.684;2022-09-20T13:38:14;3.20;;;1.25;;
22752;SDS011;11543;43.144;24.684;2022-09-20T13:40:46;2.08;;;0.35;;
22752;SDS011;11543;43.144;24.684;2022-09-20T13:45:47;1.38;;;0.30;;
22752;SDS011;11543;43.144;24.684;2022-09-20T13:48:17;2.03;;;0.30;;
22752;SDS011;11543;43.144;24.684;2022-09-20T13:50:43;0.45;;;0.20;;
22752;SDS011;11543;43.144;24.684;2022-09-20T13:53:15;0.20;;;0.13;;
22752;SDS011;11543;43.144;24.684;2022-09-20T13:55:42;0.30;;;0.17;;
22752;SDS011;11543;43.144;24.684;2022-09-20T13:58:42;0.95;;;0.20;;
22752;SDS011;11543;43.144;24.684;2022-09-20T14:01:03;1.00;;;0.20;;
22752;SDS011;11543;43.144;24.684;2022-09-20T14:03:31;1.95;;;0.40;;
22752;SDS011;11543;43.144;24.684;2022-09-20T14:06:00;0.40;;;0.20;;
22752;SDS011;11543;43.144;24.684;2022-09-20T14:13:43;1.60;;;0.20;;
22752;SDS011;11543;43.144;24.684;2022-09-20T14:16:12;0.70;;;0.13;;
22752;SDS011;11543;43.144;24.684;2022-09-20T14:18:40;0.30;;;0.20;;
22752;SDS011;11543;43.144;24.684;2022-09-20T14:21:08;0.10;;;0.10;;
22752;SDS011;11543;43.144;24.684;2022-09-20T14:26:42;0.40;;;0.10;;
22752;SDS011;11543;43.144;24.684;2022-09-20T14:34:41;0.60;;;0.20;;
22752;SDS011;11543;43.144;24.684;2022-09-20T14:40:00;1.88;;;0.30;;
22752;SDS011;11543;43.144;24.684;2022-09-20T14:45:00;0.57;;;0.20;;
22752;SDS011;11543;43.144;24.684;2022-09-20T14:47:34;1.60;;;0.30;;
22752;SDS011;11543;43.144;24.684;2022-09-20T14:50:21;0.30;;;0.20;;
22752;SDS011;11543;43.144;24.684;2022-09-20T14:53:19;1.95;;;0.30;;
22752;SDS011;11543;43.144;24.684;2022-09-20T14:56:07;0.63;;;0.20;;
22752;SDS011;11543;43.144;24.684;2022-09-20T15:01:25;0.20;;;0.20;;
22752;SDS011;11543;43.144;24.684;2022-09-20T15:03:51;0.52;;;0.30;;
22752;SDS011;11543;43.144;24.684;2022-09-20T15:06:17;0.40;;;0.10;;
22752;SDS011;11543;43.144;24.684;2022-09-20T15:08:43;2.63;;;0.30;;
22752;SDS011;11543;43.144;24.684;2022-09-20T15:11:17;0.60;;;0.28;;
22752;SDS011;11543;43.144;24.684;2022-09-20T15:13:44;4.72;;;0.30;;
22752;SDS011;11543;43.144;24.684;2022-09-20T15:16:13;0.93;;;0.32;;
22752;SDS011;11543;43.144;24.684;2022-09-20T15:18:41;0.68;;;0.30;;
22752;SDS011;11543;43.144;24.684;2022-09-20T15:21:07;0.90;;;0.28;;
22752;SDS011;11543;43.144;24.684;2022-09-20T15:23:35;0.57;;;0.20;;
22752;SDS011;11543;43.144;24.684;2022-09-20T15:26:01;0.20;;;0.20;;
22752;SDS011;11543;43.144;24.684;2022-09-20T15:28:27;0.82;;;0.25;;
22752;SDS011;11543;43.144;24.684;2022-09-20T15:30:53;0.50;;;0.22;;
22752;SDS011;11543;43.144;24.684;2022-09-20T15:33:19;1.25;;;0.20;;
22752;SDS011;11543;43.144;24.684;2022-09-20T15:35:46;0.52;;;0.20;;
22752;SDS011;11543;43.144;24.684;2022-09-20T15:38:12;1.70;;;0.20;;
22752;SDS011;11543;43.144;24.684;2022-09-20T15:40:43;0.30;;;0.20;;
22752;SDS011;11543;43.144;24.684;2022-09-20T15:43:12;4.25;;;0.30;;
22752;SDS011;11543;43.144;24.684;2022-09-20T15:45:48;0.77;;;0.30;;
22752;SDS011;11543;43.144;24.684;2022-09-20T15:48:20;1.58;;;0.30;;
22752;SDS011;11543;43.144;24.684;2022-09-20T15:53:32;0.35;;;0.20;;
22752;SDS011;11543;43.144;24.684;2022-09-20T15:56:00;0.73;;;0.22;;
22752;SDS011;11543;43.144;24.684;2022-09-20T15:58:29;2.60;;;0.30;;
22752;SDS011;11543;43.144;24.684;2022-09-20T16:01:06;2.90;;;0.40;;
22752;SDS011;11543;43.144;24.684;2022-09-20T16:03:33;0.98;;;0.20;;
22752;SDS011;11543;43.144;24.684;2022-09-20T16:06:21;0.22;;;0.20;;
22752;SDS011;11543;43.144;24.684;2022-09-20T16:08:47;0.68;;;0.40;;
22752;SDS011;11543;43.144;24.684;2022-09-20T16:11:13;0.30;;;0.30;;
22752;SDS011;11543;43.144;24.684;2022-09-20T16:13:40;0.85;;;0.40;;
22752;SDS011;11543;43.144;24.684;2022-09-20T16:16:06;1.33;;;0.30;;
22752;SDS011;11543;43.144;24.684;2022-09-20T16:18:36;0.70;;;0.40;;
22752;SDS011;11543;43.144;24.684;2022-09-20T16:21:20;4.43;;;0.98;;
22752;SDS011;11543;43.144;24.684;2022-09-20T16:23:47;3.08;;;0.80;;
22752;SDS011;11543;43.144;24.684;2022-09-20T16:26:17;7.65;;;2.65;;
22752;SDS011;11543;43.144;24.684;2022-09-20T16:28:43;13.73;;;4.63;;
22752;SDS011;11543;43.144;24.684;2022-09-20T16:33:57;13.52;;;4.68;;
22752;SDS011;11543;43.144;24.684;2022-09-20T16:36:27;50.85;;;19.15;;
22752;SDS011;11543;43.144;24.684;2022-09-20T16:38:59;50.08;;;18.42;;
22752;SDS011;11543;43.144;24.684;2022-09-20T16:41:26;75.18;;;29.73;;
22752;SDS011;11543;43.144;24.684;2022-09-20T16:43:52;66.63;;;26.75;;
22752;SDS011;11543;43.144;24.684;2022-09-20T16:46:22;59.47;;;22.67;;
22752;SDS011;11543;43.144;24.684;2022-09-20T16:48:52;68.30;;;25.30;;
22752;SDS011;11543;43.144;24.684;2022-09-20T16:51:22;48.65;;;19.35;;
22752;SDS011;11543;43.144;24.684;2022-09-20T16:53:53;47.42;;;21.50;;
22752;SDS011;11543;43.144;24.684;2022-09-20T16:56:27;54.13;;;22.08;;
22752;SDS011;11543;43.144;24.684;2022-09-20T16:58:58;38.65;;;17.10;;
22752;SDS011;11543;43.144;24.684;2022-09-20T17:01:25;25.27;;;12.10;;
22752;SDS011;11543;43.144;24.684;2022-09-20T17:03:50;14.38;;;7.90;;
22752;SDS011;11543;43.144;24.684;2022-09-20T17:06:16;10.70;;;5.53;;
22752;SDS011;11543;43.144;24.684;2022-09-20T17:08:43;17.85;;;8.55;;
22752;SDS011;11543;43.144;24.684;2022-09-20T17:11:14;10.38;;;4.45;;
22752;SDS011;11543;43.144;24.684;2022-09-20T17:13:41;16.27;;;6.50;;
22752;SDS011;11543;43.144;24.684;2022-09-20T17:16:10;15.85;;;6.63;;
22752;SDS011;11543;43.144;24.684;2022-09-20T17:18:37;22.75;;;10.70;;
22752;SDS011;11543;43.144;24.684;2022-09-20T17:21:06;10.80;;;4.50;;
22752;SDS011;11543;43.144;24.684;2022-09-20T17:23:39;3.88;;;1.77;;
22752;SDS011;11543;43.144;24.684;2022-09-20T17:26:10;3.17;;;1.48;;
22752;SDS011;11543;43.144;24.684;2022-09-20T17:28:41;4.03;;;1.10;;
22752;SDS011;11543;43.144;24.684;2022-09-20T17:31:12;2.35;;;0.88;;
22752;SDS011;11543;43.144;24.684;2022-09-20T17:33:40;3.78;;;0.70;;
22752;SDS011;11543;43.144;24.684;2022-09-20T17:36:06;2.08;;;0.65;;
22752;SDS011;11543;43.144;24.684;2022-09-20T17:38:34;3.03;;;0.80;;
22752;SDS011;11543;43.144;24.684;2022-09-20T17:43:28;4.30;;;0.80;;
22752;SDS011;11543;43.144;24.684;2022-09-20T17:46:02;1.27;;;0.80;;
22752;SDS011;11543;43.144;24.684;2022-09-20T17:48:31;1.55;;;0.80;;
22752;SDS011;11543;43.144;24.684;2022-09-20T17:50:58;1.80;;;1.20;;
22752;SDS011;11543;43.144;24.684;2022-09-20T17:53:25;2.17;;;1.30;;
22752;SDS011;11543;43.144;24.684;2022-09-20T17:55:54;3.40;;;1.10;;
22752;SDS011;11543;43.144;24.684;2022-09-20T17:58:21;1.83;;;0.80;;
22752;SDS011;11543;43.144;24.684;2022-09-20T18:00:47;3.45;;;1.00;;
22752;SDS011;11543;43.144;24.684;2022-09-20T18:03:13;1.23;;;1.00;;
22752;SDS011;11543;43.144;24.684;2022-09-20T18:05:39;1.08;;;0.77;;
22752;SDS011;11543;43.144;24.684;2022-09-20T18:08:04;1.52;;;0.60;;
22752;SDS011;11543;43.144;24.684;2022-09-20T18:10:30;3.92;;;1.20;;
22752;SDS011;11543;43.144;24.684;2022-09-20T18:12:56;10.48;;;3.95;;
22752;SDS011;11543;43.144;24.684;2022-09-20T18:15:21;4.45;;;1.95;;
22752;SDS011;11543;43.144;24.684;2022-09-20T18:17:47;1.98;;;1.05;;
22752;SDS011;11543;43.144;24.684;2022-09-20T18:20:13;2.17;;;0.77;;
22752;SDS011;11543;43.144;24.684;2022-09-20T18:22:39;1.75;;;0.90;;
22752;SDS011;11543;43.144;24.684;2022-09-20T18:25:05;8.02;;;2.63;;
22752;SDS011;11543;43.144;24.684;2022-09-20T18:27:30;4.25;;;1.10;;
22752;SDS011;11543;43.144;24.684;2022-09-20T18:29:58;2.60;;;1.30;;
22752;SDS011;11543;43.144;24.684;2022-09-20T18:32:26;2.53;;;1.10;;
22752;SDS011;11543;43.144;24.684;2022-09-20T18:34:53;3.45;;;1.52;;
22752;SDS011;11543;43.144;24.684;2022-09-20T18:37:19;3.08;;;1.00;;
22752;SDS011;11543;43.144;24.684;2022-09-20T18:39:44;1.58;;;0.70;;
22752;SDS011;11543;43.144;24.684;2022-09-20T18:42:10;1.50;;;0.60;;
22752;SDS011;11543;43.144;24.684;2022-09-20T18:44:35;2.03;;;0.60;;
22752;SDS011;11543;43.144;24.684;2022-09-20T18:47:01;2.10;;;0.50;;
22752;SDS011;11543;43.144;24.684;2022-09-20T18:49:27;0.68;;;0.50;;
22752;SDS011;11543;43.144;24.684;2022-09-20T18:51:54;1.70;;;0.68;;
22752;SDS011;11543;43.144;24.684;2022-09-20T18:54:21;1.63;;;0.80;;
22752;SDS011;11543;43.144;24.684;2022-09-20T18:56:47;1.58;;;0.70;;
22752;SDS011;11543;43.144;24.684;2022-09-20T18:59:17;1.88;;;0.52;;
22752;SDS011;11543;43.144;24.684;2022-09-20T19:12:58;1.30;;;0.70;;
22752;SDS011;11543;43.144;24.684;2022-09-20T19:21:22;2.35;;;0.47;;
22752;SDS011;11543;43.144;24.684;2022-09-20T19:26:30;1.10;;;0.60;;
22752;SDS011;11543;43.144;24.684;2022-09-20T19:29:01;1.35;;;0.57;;
22752;SDS011;11543;43.144;24.684;2022-09-20T19:33:56;2.97;;;0.65;;
22752;SDS011;11543;43.144;24.684;2022-09-20T19:36:24;0.82;;;0.60;;
22752;SDS011;11543;43.144;24.684;2022-09-20T19:44:56;1.63;;;0.88;;
22752;SDS011;11543;43.144;24.684;2022-09-20T19:50:14;1.10;;;0.80;;
22752;SDS011;11543;43.144;24.684;2022-09-20T19:52:47;2.55;;;0.85;;
22752;SDS011;11543;43.144;24.684;2022-09-20T19:55:14;1.70;;;1.23;;
22752;SDS011;11543;43.144;24.684;2022-09-20T19:57:43;3.97;;;1.00;;
22752;SDS011;11543;43.144;24.684;2022-09-20T20:00:14;2.50;;;1.30;;
22752;SDS011;11543;43.144;24.684;2022-09-20T20:02:42;3.15;;;1.83;;
22752;SDS011;11543;43.144;24.684;2022-09-20T20:05:12;3.13;;;1.38;;
22752;SDS011;11543;43.144;24.684;2022-09-20T20:07:51;4.18;;;1.23;;
22752;SDS011;11543;43.144;24.684;2022-09-20T20:15:59;2.45;;;0.90;;
22752;SDS011;11543;43.144;24.684;2022-09-20T20:21:16;2.40;;;1.40;;
22752;SDS011;11543;43.144;24.684;2022-09-20T20:27:05;4.30;;;2.00;;
22752;SDS011;11543;43.144;24.684;2022-09-20T20:29:32;3.75;;;2.15;;
22752;SDS011;11543;43.144;24.684;2022-09-20T20:31:58;2.78;;;2.00;;
22752;SDS011;11543;43.144;24.684;2022-09-20T20:34:23;3.83;;;2.20;;
22752;SDS011;11543;43.144;24.684;2022-09-20T20:36:50;5.10;;;2.20;;
22752;SDS011;11543;43.144;24.684;2022-09-20T20:39:24;3.10;;;2.00;;
22752;SDS011;11543;43.144;24.684;2022-09-20T20:41:50;3.03;;;1.90;;
22752;SDS011;11543;43.144;24.684;2022-09-20T20:44:17;4.53;;;2.38;;
22752;SDS011;11543;43.144;24.684;2022-09-20T20:46:43;5.70;;;2.33;;
22752;SDS011;11543;43.144;24.684;2022-09-20T20:49:11;6.18;;;2.50;;
22752;SDS011;11543;43.144;24.684;2022-09-20T20:51:37;6.13;;;2.40;;
22752;SDS011;11543;43.144;24.684;2022-09-20T20:54:03;5.13;;;2.17;;
22752;SDS011;11543;43.144;24.684;2022-09-20T20:56:29;4.45;;;1.70;;
22752;SDS011;11543;43.144;24.684;2022-09-20T20:58:55;3.28;;;1.70;;
22752;SDS011;11543;43.144;24.684;2022-09-20T21:03:57;3.53;;;1.73;;
22752;SDS011;11543;43.144;24.684;2022-09-20T21:06:24;2.60;;;1.40;;
22752;SDS011;11543;43.144;24.684;2022-09-20T21:08:54;2.25;;;1.38;;
22752;SDS011;11543;43.144;24.684;2022-09-20T21:13:48;3.67;;;1.80;;
22752;SDS011;11543;43.144;24.684;2022-09-20T21:16:15;3.00;;;1.60;;
22752;SDS011;11543;43.144;24.684;2022-09-20T21:18:43;3.33;;;1.80;;
22752;SDS011;11543;43.144;24.684;2022-09-20T21:21:15;2.58;;;1.38;;
22752;SDS011;11543;43.144;24.684;2022-09-20T21:23:49;3.08;;;1.13;;
22752;SDS011;11543;43.144;24.684;2022-09-20T21:26:16;1.75;;;1.10;;
22752;SDS011;11543;43.144;24.684;2022-09-20T21:29:05;2.08;;;0.93;;
22752;SDS011;11543;43.144;24.684;2022-09-20T21:31:35;1.50;;;0.90;;
22752;SDS011;11543;43.144;24.684;2022-09-20T21:34:03;2.50;;;0.93;;
22752;SDS011;11543;43.144;24.684;2022-09-20T21:36:31;1.42;;;0.90;;